createdAt,value
2022-10-20T00:01:39.426Z,7.12
2022-10-20T00:04:05.825Z,7.14
2022-10-20T00:06:33.157Z,7.10
2022-10-20T00:09:00.603Z,6.97
2022-10-20T00:11:27.696Z,7.08
2022-10-20T00:13:58.018Z,6.99
2022-10-20T00:16:25.535Z,6.97
2022-10-20T00:18:51.899Z,7.00
2022-10-20T00:21:20.275Z,6.99
2022-10-20T00:23:46.874Z,6.92
2022-10-20T00:26:15.167Z,7.01
2022-10-20T00:28:42.721Z,6.87
2022-10-20T00:31:09.109Z,6.70
2022-10-20T00:33:35.936Z,6.77
2022-10-20T00:36:03.217Z,6.79
2022-10-20T00:38:34.888Z,6.76
2022-10-20T00:41:03.294Z,6.87
2022-10-20T00:43:44.742Z,6.67
2022-10-20T00:46:12.694Z,6.69
2022-10-20T00:48:40.229Z,6.67
2022-10-20T00:51:06.753Z,6.69
2022-10-20T00:53:34.192Z,6.74
2022-10-20T00:56:01.937Z,6.74
2022-10-20T00:58:28.697Z,6.65
2022-10-20T01:00:57.067Z,6.81
2022-10-20T01:03:28.564Z,6.72
2022-10-20T01:05:54.915Z,6.69
2022-10-20T01:08:21.219Z,6.54
2022-10-20T01:10:55.660Z,6.56
2022-10-20T01:13:29.107Z,6.64
2022-10-20T01:15:56.488Z,6.46
2022-10-20T01:18:40.867Z,6.50
2022-10-20T01:21:20.975Z,6.55
2022-10-20T01:23:53.465Z,6.50
2022-10-20T01:26:33.103Z,6.38
2022-10-20T01:29:11.298Z,6.38
2022-10-20T01:31:56.489Z,6.53
2022-10-20T01:34:35.633Z,6.46
2022-10-20T01:37:08.914Z,6.37
2022-10-20T01:39:39.745Z,6.38
2022-10-20T01:42:16.332Z,6.40
2022-10-20T01:44:43.261Z,6.45
2022-10-20T01:47:10.171Z,6.35
2022-10-20T01:49:36.612Z,6.40
2022-10-20T01:52:03.097Z,6.33
2022-10-20T01:54:30.523Z,6.38
2022-10-20T01:57:15.247Z,6.38
2022-10-20T02:00:01.939Z,6.30
2022-10-20T02:02:46.804Z,6.26
2022-10-20T02:05:16.288Z,6.26
2022-10-20T02:07:43.153Z,6.29
2022-10-20T02:10:24.775Z,6.21
2022-10-20T02:12:53.973Z,6.24
2022-10-20T02:15:24.093Z,6.30
2022-10-20T02:17:53.296Z,6.28
2022-10-20T02:20:19.820Z,6.23
2022-10-20T02:22:47.782Z,6.21
2022-10-20T02:25:14.286Z,6.22
2022-10-20T02:27:43.300Z,6.22
2022-10-20T02:30:12.397Z,6.22
2022-10-20T02:32:40.392Z,6.12
2022-10-20T02:35:07.972Z,6.20
2022-10-20T02:37:34.610Z,6.20
2022-10-20T02:40:01.326Z,6.15
2022-10-20T02:42:27.644Z,6.16
2022-10-20T02:44:56.061Z,6.11
2022-10-20T02:47:22.767Z,6.10
2022-10-20T02:49:55.090Z,6.07
2022-10-20T02:52:21.741Z,6.07
2022-10-20T02:54:48.067Z,6.07
2022-10-20T02:57:14.413Z,5.90
2022-10-20T02:59:40.996Z,6.02
2022-10-20T03:02:07.431Z,5.98
2022-10-20T03:04:41.775Z,5.91
2022-10-20T03:07:08.107Z,5.92
2022-10-20T03:09:35.520Z,5.89
2022-10-20T03:12:02.168Z,5.85
2022-10-20T03:14:28.476Z,5.88
2022-10-20T03:16:54.808Z,5.83
2022-10-20T03:19:21.151Z,5.81
2022-10-20T03:21:48.886Z,5.81
2022-10-20T03:24:21.196Z,5.68
2022-10-20T03:26:47.573Z,5.68
2022-10-20T03:29:13.905Z,5.54
2022-10-20T03:31:40.462Z,5.59
2022-10-20T03:34:06.799Z,5.57
2022-10-20T03:36:33.141Z,5.59
2022-10-20T03:38:59.529Z,5.56
2022-10-20T03:41:25.922Z,5.42
2022-10-20T03:43:54.383Z,5.45
2022-10-20T03:46:20.815Z,5.49
2022-10-20T03:48:47.145Z,5.38
2022-10-20T03:51:14.097Z,5.46
2022-10-20T03:53:40.507Z,5.39
2022-10-20T03:56:07.929Z,5.41
2022-10-20T03:58:34.346Z,5.49
2022-10-20T04:01:09.351Z,5.42
2022-10-20T04:03:35.695Z,5.39
2022-10-20T04:06:02.110Z,5.40
2022-10-20T04:08:28.485Z,5.39
2022-10-20T04:10:54.874Z,5.39
2022-10-20T04:13:22.325Z,5.38
2022-10-20T04:15:48.732Z,5.48
2022-10-20T04:18:15.045Z,5.41
2022-10-20T04:20:47.441Z,5.45
2022-10-20T04:23:14.040Z,5.42
2022-10-20T04:25:45.467Z,5.37
2022-10-20T04:28:12.550Z,5.41
2022-10-20T04:30:39.147Z,5.32
2022-10-20T04:33:05.475Z,5.30
2022-10-20T04:35:31.787Z,5.29
2022-10-20T04:37:58.091Z,5.30
2022-10-20T04:40:24.409Z,5.18
2022-10-20T04:42:50.831Z,5.25
2022-10-20T04:45:17.333Z,5.19
2022-10-20T04:47:43.877Z,5.17
2022-10-20T04:50:10.401Z,5.13
2022-10-20T04:52:36.733Z,5.08
2022-10-20T04:55:03.541Z,5.11
2022-10-20T04:57:29.855Z,5.08
2022-10-20T04:59:56.456Z,5.16
2022-10-20T05:02:22.852Z,5.11
2022-10-20T05:04:49.252Z,5.07
2022-10-20T05:07:15.767Z,5.02
2022-10-20T05:09:42.092Z,5.07
2022-10-20T05:12:08.572Z,4.98
2022-10-20T05:14:34.912Z,5.00
2022-10-20T05:17:03.215Z,4.90
2022-10-20T05:19:31.589Z,4.94
2022-10-20T05:21:58.007Z,4.90
2022-10-20T05:24:29.174Z,4.82
2022-10-20T05:26:56.386Z,4.89
2022-10-20T05:29:22.760Z,4.82
2022-10-20T05:31:49.100Z,4.82
2022-10-20T05:34:15.413Z,4.85
2022-10-20T05:36:41.855Z,4.88
2022-10-20T05:39:08.245Z,4.82
2022-10-20T05:41:37.924Z,4.88
2022-10-20T05:44:06.287Z,4.77
2022-10-20T05:46:33.878Z,4.79
2022-10-20T05:49:01.758Z,4.78
2022-10-20T05:51:29.500Z,4.75
2022-10-20T05:53:56.392Z,4.69
2022-10-20T05:56:23.158Z,4.87
2022-10-20T05:58:50.009Z,4.82
2022-10-20T06:01:24.673Z,4.86
2022-10-20T06:03:52.341Z,4.82
2022-10-20T06:06:19.817Z,4.95
2022-10-20T06:08:46.613Z,4.99
2022-10-20T06:11:13.582Z,4.92
2022-10-20T06:13:39.933Z,5.00
2022-10-20T06:16:13.568Z,5.10
2022-10-20T06:18:40.584Z,5.17
2022-10-20T06:21:09.925Z,5.29
2022-10-20T06:23:36.522Z,5.41
2022-10-20T06:26:04.159Z,5.43
2022-10-20T06:28:31.664Z,5.29
2022-10-20T06:30:59.799Z,5.52
2022-10-20T06:33:29.512Z,5.78
2022-10-20T06:36:01.927Z,6.10
2022-10-20T06:38:28.885Z,6.90
2022-10-20T06:40:55.559Z,7.43
2022-10-20T06:43:22.342Z,7.82
2022-10-20T06:45:55.669Z,7.59
2022-10-20T06:48:22.013Z,7.67
2022-10-20T06:50:48.330Z,7.87
2022-10-20T06:53:14.653Z,8.29
2022-10-20T06:55:41.016Z,7.85
2022-10-20T06:58:07.331Z,7.86
2022-10-20T07:00:33.661Z,8.47
2022-10-20T07:03:00.017Z,8.33
2022-10-20T07:05:26.380Z,8.82
2022-10-20T07:07:53.267Z,8.73
2022-10-20T07:10:19.710Z,9.17
2022-10-20T07:12:46.076Z,8.89
2022-10-20T07:15:12.516Z,9.67
2022-10-20T07:17:38.933Z,10.47
2022-10-20T07:20:05.551Z,10.70
2022-10-20T07:22:33.670Z,10.70
2022-10-20T07:25:05.942Z,11.11
2022-10-20T07:27:32.368Z,11.00
2022-10-20T07:29:58.763Z,10.99
2022-10-20T07:32:25.166Z,10.77
2022-10-20T07:34:51.512Z,11.47
2022-10-20T07:37:17.833Z,11.44
2022-10-20T07:39:44.228Z,10.93
2022-10-20T07:42:10.970Z,10.97
2022-10-20T07:44:37.299Z,10.88
2022-10-20T07:47:03.611Z,11.18
2022-10-20T07:49:45.463Z,11.57
2022-10-20T07:52:12.024Z,11.72
2022-10-20T07:54:38.390Z,11.61
2022-10-20T07:57:04.736Z,11.73
2022-10-20T07:59:31.281Z,12.49
2022-10-20T08:01:59.798Z,12.25
2022-10-20T08:04:28.254Z,12.06
2022-10-20T08:06:54.696Z,12.06
2022-10-20T08:09:21.009Z,11.69
2022-10-20T08:11:50.363Z,11.85
2022-10-20T08:14:19.293Z,12.01
2022-10-20T08:16:45.714Z,12.06
2022-10-20T08:19:17.738Z,11.79
2022-10-20T08:21:44.181Z,11.82
2022-10-20T08:24:10.770Z,11.94
2022-10-20T08:26:37.090Z,11.84
2022-10-20T08:29:03.506Z,11.66
2022-10-20T08:31:29.867Z,11.87
2022-10-20T08:33:56.904Z,12.28
2022-10-20T08:36:23.394Z,12.44
2022-10-20T08:38:49.753Z,11.83
2022-10-20T08:41:20.828Z,12.11
2022-10-20T08:43:48.536Z,12.46
2022-10-20T08:46:16.053Z,12.95
2022-10-20T08:48:43.593Z,13.08
2022-10-20T08:51:15.886Z,13.10
2022-10-20T08:53:42.269Z,13.28
2022-10-20T08:56:12.398Z,13.52
2022-10-20T08:58:41.969Z,13.92
2022-10-20T09:01:14.395Z,14.19
2022-10-20T09:03:41.972Z,14.01
2022-10-20T09:06:15.324Z,14.07
2022-10-20T09:08:43.005Z,13.67
2022-10-20T09:11:13.755Z,13.59
2022-10-20T09:13:40.368Z,13.75
2022-10-20T09:16:40.477Z,13.93
2022-10-20T09:19:16.364Z,14.29
2022-10-20T09:21:44.479Z,14.42
2022-10-20T09:24:11.937Z,14.43
2022-10-20T09:26:58.244Z,14.08
2022-10-20T09:29:35.254Z,14.31
2022-10-20T09:32:16.694Z,14.42
2022-10-20T09:34:48.440Z,14.48
2022-10-20T09:37:18.672Z,14.41
2022-10-20T09:39:55.213Z,14.82
2022-10-20T09:42:24.917Z,14.81
2022-10-20T09:44:56.915Z,14.78
2022-10-20T09:47:24.253Z,14.62
2022-10-20T09:50:16.870Z,14.74
2022-10-20T09:52:47.642Z,15.00
2022-10-20T09:55:26.584Z,15.29
2022-10-20T09:57:53.985Z,14.77
2022-10-20T10:00:43.093Z,15.05
2022-10-20T10:03:14.577Z,15.20
2022-10-20T10:05:40.955Z,15.02
2022-10-20T10:08:13.233Z,15.22
2022-10-20T10:10:39.942Z,14.91
2022-10-20T10:13:21.196Z,15.15
2022-10-20T10:15:58.892Z,14.92
2022-10-20T10:18:25.282Z,15.34
2022-10-20T10:21:03.108Z,15.55
2022-10-20T10:23:30.702Z,15.79
2022-10-20T10:26:00.621Z,15.51
2022-10-20T10:28:34.300Z,15.31
2022-10-20T10:31:06.589Z,15.47
2022-10-20T10:33:33.288Z,15.36
2022-10-20T10:36:02.759Z,15.66
2022-10-20T10:38:29.439Z,15.49
2022-10-20T10:41:10.127Z,15.46
2022-10-20T10:43:36.527Z,15.58
2022-10-20T10:46:02.873Z,15.70
2022-10-20T10:48:43.572Z,15.33
2022-10-20T10:51:18.895Z,15.57
2022-10-20T10:54:05.970Z,15.62
2022-10-20T10:56:35.586Z,15.68
2022-10-20T10:59:06.572Z,15.42
2022-10-20T11:01:51.866Z,15.46
2022-10-20T11:04:18.197Z,15.14
2022-10-20T11:06:45.037Z,15.33
2022-10-20T11:09:14.267Z,15.49
2022-10-20T11:11:51.592Z,15.39
2022-10-20T11:14:24.487Z,15.53
2022-10-20T11:16:55.769Z,15.53
2022-10-20T11:19:30.577Z,15.52
2022-10-20T11:21:57.892Z,15.29
2022-10-20T11:24:24.261Z,15.31
2022-10-20T11:26:57.138Z,15.07
2022-10-20T11:29:28.371Z,15.15
2022-10-20T11:32:15.334Z,15.42
2022-10-20T11:34:49.896Z,15.43
2022-10-20T11:37:30.328Z,15.26
2022-10-20T11:39:56.752Z,15.44
2022-10-20T11:42:23.057Z,15.38
2022-10-20T11:44:49.773Z,15.15
2022-10-20T11:47:18.007Z,15.22
2022-10-20T11:49:44.500Z,15.15
2022-10-20T11:52:16.956Z,15.37
2022-10-20T11:54:46.045Z,15.35
2022-10-20T11:57:15.438Z,15.26
2022-10-20T11:59:53.848Z,15.12
2022-10-20T12:02:38.431Z,15.01
2022-10-20T12:05:04.903Z,15.07
2022-10-20T12:07:51.551Z,15.03
2022-10-20T12:10:40.140Z,15.06
2022-10-20T12:13:12.551Z,15.28
2022-10-20T12:15:48.795Z,15.32
2022-10-20T12:18:27.532Z,15.49
2022-10-20T12:20:56.263Z,15.70
2022-10-20T12:23:41.388Z,15.42
2022-10-20T12:26:27.960Z,15.67
2022-10-20T12:28:54.325Z,15.66
2022-10-20T12:31:20.680Z,15.33
2022-10-20T12:33:50.026Z,15.46
2022-10-20T12:36:16.314Z,15.26
2022-10-20T12:38:47.732Z,15.52
2022-10-20T12:41:27.703Z,15.51
2022-10-20T12:43:58.038Z,15.58
2022-10-20T12:46:28.448Z,15.46
2022-10-20T12:48:59.785Z,15.65
2022-10-20T12:51:46.561Z,15.75
2022-10-20T12:54:46.234Z,15.97
2022-10-20T12:57:41.326Z,16.01
2022-10-20T13:00:20.045Z,16.24
2022-10-20T13:02:53.809Z,16.33
2022-10-20T13:05:20.097Z,16.07
2022-10-20T13:07:46.452Z,16.17
2022-10-20T13:10:24.935Z,15.98
2022-10-20T13:12:51.275Z,16.06
2022-10-20T13:15:20.720Z,16.18
2022-10-20T13:17:54.460Z,16.23
2022-10-20T13:20:38.661Z,16.19
2022-10-20T13:23:05.680Z,16.27
2022-10-20T13:25:40.097Z,16.13
2022-10-20T13:28:14.667Z,16.23
2022-10-20T13:30:56.250Z,16.04
2022-10-20T13:34:06.542Z,16.16
2022-10-20T13:36:59.105Z,16.31
2022-10-20T13:39:31.539Z,16.33
2022-10-20T13:42:00.608Z,16.34
2022-10-20T13:44:32.856Z,15.89
2022-10-20T13:47:19.437Z,16.04
2022-10-20T13:49:52.866Z,16.31
2022-10-20T13:52:21.584Z,16.22
2022-10-20T13:54:49.507Z,16.26
2022-10-20T13:57:24.735Z,16.09
2022-10-20T14:00:01.072Z,16.08
2022-10-20T14:02:32.138Z,16.19
2022-10-20T14:05:12.608Z,15.97
2022-10-20T14:07:40.684Z,16.14
2022-10-20T14:10:19.808Z,16.03
2022-10-20T14:12:46.298Z,16.18
2022-10-20T14:15:14.968Z,16.05
2022-10-20T14:17:42.427Z,16.03
2022-10-20T14:20:17.443Z,15.92
2022-10-20T14:22:44.395Z,16.04
2022-10-20T14:25:11.453Z,15.86
2022-10-20T14:27:38.433Z,15.91
2022-10-20T14:30:06.646Z,15.71
2022-10-20T14:32:35.383Z,15.98
2022-10-20T14:35:23.672Z,15.91
2022-10-20T14:37:55.057Z,15.90
2022-10-20T14:40:27.043Z,16.00
2022-10-20T14:42:57.529Z,15.80
2022-10-20T14:45:25.581Z,15.73
2022-10-20T14:47:54.624Z,15.72
2022-10-20T14:50:28.122Z,15.48
2022-10-20T14:52:54.742Z,15.56
2022-10-20T14:55:30.094Z,15.66
2022-10-20T14:57:57.501Z,15.65
2022-10-20T15:00:28.773Z,15.61
2022-10-20T15:03:00.242Z,15.55
2022-10-20T15:05:26.529Z,15.56
2022-10-20T15:07:53.882Z,15.43
2022-10-20T15:10:25.018Z,15.32
2022-10-20T15:12:53.149Z,15.34
2022-10-20T15:15:23.788Z,15.19
2022-10-20T15:18:09.860Z,15.17
2022-10-20T15:20:39.778Z,15.20
2022-10-20T15:23:10.216Z,14.88
2022-10-20T15:25:45.965Z,14.97
2022-10-20T15:28:33.657Z,14.87
2022-10-20T15:31:01.010Z,14.76
2022-10-20T15:33:27.479Z,14.65
2022-10-20T15:35:54.110Z,14.54
2022-10-20T15:38:20.899Z,14.56
2022-10-20T15:40:47.633Z,14.48
2022-10-20T15:43:15.503Z,14.22
2022-10-20T15:45:53.343Z,14.22
2022-10-20T15:48:19.924Z,14.17
2022-10-20T15:50:46.766Z,14.17
2022-10-20T15:53:13.087Z,14.22
2022-10-20T15:55:41.418Z,13.99
2022-10-20T15:58:08.076Z,13.97
2022-10-20T16:00:34.557Z,13.90
2022-10-20T16:03:00.959Z,13.79
2022-10-20T16:05:27.614Z,13.67
2022-10-20T16:07:54.743Z,13.56
2022-10-20T16:10:25.840Z,13.56
2022-10-20T16:12:52.164Z,13.52
2022-10-20T16:15:18.813Z,13.50
2022-10-20T16:17:45.532Z,13.28
2022-10-20T16:20:12.370Z,13.18
2022-10-20T16:22:39.079Z,13.10
2022-10-20T16:25:05.817Z,13.10
2022-10-20T16:27:33.901Z,13.01
2022-10-20T16:30:00.902Z,13.04
2022-10-20T16:32:32.793Z,13.00
2022-10-20T16:35:02.297Z,13.04
2022-10-20T16:37:30.532Z,13.03
2022-10-20T16:39:57.047Z,12.99
2022-10-20T16:42:23.509Z,12.92
2022-10-20T16:44:50.255Z,12.84
2022-10-20T16:47:16.592Z,12.76
2022-10-20T16:49:43.200Z,12.97
2022-10-20T16:52:09.555Z,12.83
2022-10-20T16:54:36.395Z,12.83
2022-10-20T16:57:02.990Z,12.82
2022-10-20T16:59:29.453Z,12.85
2022-10-20T17:01:56.800Z,12.88
2022-10-20T17:04:24.016Z,12.72
2022-10-20T17:06:52.420Z,12.73
2022-10-20T17:09:18.833Z,12.71
2022-10-20T17:11:45.157Z,12.69
2022-10-20T17:14:11.543Z,12.77
2022-10-20T17:16:40.063Z,12.82
2022-10-20T17:19:06.745Z,12.53
2022-10-20T17:21:33.543Z,12.53
2022-10-20T17:24:00.267Z,12.57
2022-10-20T17:26:30.217Z,12.83
2022-10-20T17:29:00.398Z,12.48
2022-10-20T17:31:27.160Z,12.44
2022-10-20T17:33:54.814Z,12.41
2022-10-20T17:36:25.975Z,12.52
2022-10-20T17:38:53.219Z,12.44
2022-10-20T17:41:19.534Z,12.40
2022-10-20T17:43:45.924Z,12.54
2022-10-20T17:46:13.406Z,12.51
2022-10-20T17:48:39.874Z,12.58
2022-10-20T17:51:06.251Z,12.42
2022-10-20T17:53:36.903Z,12.46
2022-10-20T17:56:04.996Z,12.36
2022-10-20T17:58:31.325Z,12.27
2022-10-20T18:01:14.550Z,12.37
2022-10-20T18:03:41.717Z,12.38
2022-10-20T18:06:12.673Z,12.37
2022-10-20T18:08:39.138Z,12.19
2022-10-20T18:11:25.141Z,12.15
2022-10-20T18:13:52.173Z,12.15
2022-10-20T18:16:19.868Z,11.87
2022-10-20T18:18:46.310Z,12.00
2022-10-20T18:21:14.009Z,11.89
2022-10-20T18:23:43.850Z,12.00
2022-10-20T18:26:11.104Z,12.05
2022-10-20T18:28:40.199Z,12.01
2022-10-20T18:31:13.541Z,12.06
2022-10-20T18:33:41.639Z,11.98
2022-10-20T18:36:09.892Z,12.07
2022-10-20T18:38:37.031Z,11.98
2022-10-20T18:41:07.419Z,11.73
2022-10-20T18:43:33.832Z,11.95
2022-10-20T18:46:01.275Z,11.99
2022-10-20T18:48:28.022Z,11.86
2022-10-20T18:50:58.848Z,11.88
2022-10-20T18:53:26.525Z,11.82
2022-10-20T18:56:03.139Z,11.79
2022-10-20T18:58:31.114Z,11.57
2022-10-20T19:01:17.011Z,11.44
2022-10-20T19:03:48.327Z,11.60
2022-10-20T19:06:19.383Z,11.40
2022-10-20T19:08:46.146Z,11.57
2022-10-20T19:11:13.322Z,11.59
2022-10-20T19:13:40.166Z,11.46
2022-10-20T19:16:08.597Z,11.21
2022-10-20T19:18:35.590Z,11.23
2022-10-20T19:21:03.620Z,11.06
2022-10-20T19:23:34.336Z,11.20
2022-10-20T19:26:02.803Z,11.38
2022-10-20T19:28:30.273Z,11.43
2022-10-20T19:30:56.837Z,11.33
2022-10-20T19:33:23.272Z,11.28
2022-10-20T19:35:50.361Z,11.28
2022-10-20T19:38:17.542Z,11.19
2022-10-20T19:40:43.928Z,11.26
2022-10-20T19:43:11.052Z,11.35
2022-10-20T19:45:37.487Z,11.43
2022-10-20T19:48:03.904Z,11.41
2022-10-20T19:50:30.361Z,11.06
2022-10-20T19:52:58.820Z,11.23
2022-10-20T19:55:25.407Z,11.14
2022-10-20T19:57:51.771Z,10.98
2022-10-20T20:00:18.112Z,11.19
2022-10-20T20:02:44.556Z,11.12
2022-10-20T20:05:10.888Z,11.08
2022-10-20T20:07:37.572Z,11.13
2022-10-20T20:10:04.269Z,11.00
2022-10-20T20:12:30.717Z,11.00
2022-10-20T20:14:57.131Z,11.09
2022-10-20T20:17:23.566Z,11.06
2022-10-20T20:19:49.869Z,11.16
2022-10-20T20:22:16.623Z,11.09
2022-10-20T20:24:43.941Z,11.17
2022-10-20T20:27:10.848Z,11.14
2022-10-20T20:29:37.201Z,11.08
2022-10-20T20:32:03.564Z,10.90
2022-10-20T20:34:29.899Z,11.15
2022-10-20T20:36:56.273Z,11.17
2022-10-20T20:39:22.659Z,11.19
2022-10-20T20:41:49.004Z,11.14
2022-10-20T20:44:15.477Z,11.16
2022-10-20T20:46:41.869Z,11.14
2022-10-20T20:49:08.692Z,11.15
2022-10-20T20:51:35.109Z,11.15
2022-10-20T20:54:02.184Z,11.10
2022-10-20T20:56:28.560Z,10.99
2022-10-20T20:58:55.704Z,11.11
2022-10-20T21:01:31.198Z,11.02
2022-10-20T21:03:58.716Z,11.12
2022-10-20T21:06:33.400Z,11.11
2022-10-20T21:09:00.508Z,10.92
2022-10-20T21:11:27.718Z,11.08
2022-10-20T21:13:55.160Z,11.07
2022-10-20T21:16:26.181Z,11.16
2022-10-20T21:18:54.200Z,11.14
2022-10-20T21:21:22.272Z,11.06
2022-10-20T21:23:48.757Z,11.06
2022-10-20T21:26:16.105Z,11.02
2022-10-20T21:28:42.837Z,11.00
2022-10-20T21:31:10.666Z,10.95
2022-10-20T21:33:37.566Z,11.06
2022-10-20T21:36:04.756Z,10.92
2022-10-20T21:38:31.795Z,11.00
2022-10-20T21:41:07.265Z,10.85
2022-10-20T21:43:34.825Z,10.90
2022-10-20T21:46:14.863Z,11.00
2022-10-20T21:48:42.026Z,10.99
2022-10-20T21:51:09.206Z,11.05
2022-10-20T21:53:35.547Z,11.02
2022-10-20T21:56:02.063Z,10.88
2022-10-20T21:58:28.383Z,11.12
2022-10-20T22:00:56.155Z,11.00
2022-10-20T22:03:23.122Z,11.02
2022-10-20T22:05:49.468Z,10.93
2022-10-20T22:08:15.836Z,10.91
2022-10-20T22:10:42.459Z,10.89
2022-10-20T22:13:09.300Z,11.02
2022-10-20T22:15:39.537Z,11.03
2022-10-20T22:18:06.192Z,10.97
2022-10-20T22:20:34.989Z,11.07
2022-10-20T22:23:02.852Z,11.02
2022-10-20T22:25:29.527Z,10.97
2022-10-20T22:27:55.917Z,10.99
2022-10-20T22:30:22.234Z,10.86
2022-10-20T22:32:48.720Z,11.06
2022-10-20T22:35:15.048Z,11.01
2022-10-20T22:37:41.360Z,11.01
2022-10-20T22:40:08.151Z,10.96
2022-10-20T22:42:34.479Z,10.60
2022-10-20T22:45:00.823Z,10.59
2022-10-20T22:47:27.163Z,10.83
2022-10-20T22:49:53.600Z,10.81
2022-10-20T22:52:19.941Z,10.76
2022-10-20T22:54:46.448Z,10.82
2022-10-20T22:57:12.785Z,10.76
2022-10-20T22:59:39.169Z,10.71
2022-10-20T23:02:05.609Z,10.66
2022-10-20T23:04:31.928Z,10.68
2022-10-20T23:06:58.795Z,10.66
2022-10-20T23:09:25.407Z,10.68
2022-10-20T23:11:51.752Z,10.63
2022-10-20T23:14:18.081Z,10.63
2022-10-20T23:16:44.388Z,10.53
2022-10-20T23:19:10.687Z,10.62
2022-10-20T23:21:37.017Z,10.69
2022-10-20T23:24:03.433Z,10.75
2022-10-20T23:26:29.777Z,10.77
2022-10-20T23:28:56.209Z,10.78
2022-10-20T23:31:22.911Z,10.59
2022-10-20T23:33:51.115Z,10.48
2022-10-20T23:36:17.478Z,10.64
2022-10-20T23:38:43.808Z,10.71
2022-10-20T23:41:10.197Z,10.45
2022-10-20T23:46:08.306Z,10.54
2022-10-20T23:48:35.202Z,10.52
2022-10-20T23:51:01.533Z,10.59
2022-10-20T23:53:27.947Z,10.58
2022-10-20T23:55:54.471Z,10.57
2022-10-20T23:58:22.555Z,10.53
